Terminal Aerodrome Forecast
Issued by NWS

Home | Current Version | Previous Version | Text Only | Print | Product List | Glossary On
Versions: 1 2 3 4 5 6 7 8 9 10 11 12 13 14 15 16 17 18 19 20 21 22 23 24 25 26 27 28 29 30 31 32 33 34 35 36 37 38
000
FTAK31 PAFA 250527
TAFAUN
TAF
PAUN 250527Z 2506/2606 30006KT P6SM VCSH FEW030 SCT050 BKN080
     FM250900 10006KT P6SM BKN050 BKN080
     FM252100 29008KT P6SM VCSH BKN050 OVC100
      AMD NOT SKED=

USA.gov is the U.S. government's official web portal to all federal, state and local government web resources and services.